PWSweather.com
Personal Weather Stations
Station Observations
KVAGLENALL
West Henrico, Glen Allen, VA 23060-6503

West HenricoGlen Allen, VA 23060-6503

Lat: 37.6554, Lon: -77.5693

Elevation: 273

Station Type: Davis Vantage Pro II

www.glenallenweather.com

High Low Average
Temperature 77.5°F25.3°C 53.6°F12.0°C 66.0°F18.9°C
Dew Point 56.5°F13.6°C 49.2°F9.6°C 52.9°F11.6°C
Winds 6.0 mph 9.7 kmh Calm Calm 3.0 mph SW4.8 kmh SW
Wind Gusts 10.1 mph16.3 kmh 1.0 mph1.6 kmh 5.0 mph8.0 kmh
Humidity 88% 41% 65%
Pressure 30.17 in1021.7 mb 29.93 in1013.5 mb -
Precipitation 0.00 in0.0 mm - -
Hour Temp Dew Point Humidity Winds Wind Gusts Pressure Precip Precip Rate Daily Precip Total
12:00 AM 58.5°F14.7°C 52.7°F11.5°C 81% Calm Calm 3.0 mph4.8 kmh 29.93 in1013.5 mb 0.00 in0.0 mm 0.00 in0.0 mm 0.00 in0.0 mm
01:00 AM 57.6°F14.2°C 50.4°F10.2°C 77% Calm Calm 2.0 mph3.2 kmh 29.94 in1013.9 mb 0.00 in0.0 mm 0.00 in0.0 mm 0.00 in0.0 mm
02:00 AM 55.6°F13.1°C 51.8°F11.0°C 87% Calm Calm 1.0 mph1.6 kmh 29.95 in1014.2 mb 0.00 in0.0 mm 0.00 in0.0 mm 0.00 in0.0 mm
03:00 AM 55.1°F12.8°C 51.6°F10.9°C 88% 2.0 mph SSW3.2 kmh SSW 3.0 mph4.8 kmh 29.96 in1014.6 mb 0.00 in0.0 mm 0.00 in0.0 mm 0.00 in0.0 mm
04:00 AM 54.1°F12.3°C 50.0°F10.0°C 86% 4.0 mph SSW6.4 kmh SSW 6.1 mph9.8 kmh 29.98 in1015.2 mb 0.00 in0.0 mm 0.00 in0.0 mm 0.00 in0.0 mm
05:00 AM 53.6°F12.0°C 49.2°F9.6°C 85% 3.0 mph WNW4.8 kmh WNW 7.1 mph11.4 kmh 30.00 in1015.9 mb 0.00 in0.0 mm 0.00 in0.0 mm 0.00 in0.0 mm
06:00 AM 56.0°F13.3°C 50.2°F10.1°C 81% 4.0 mph SW6.4 kmh SW 5.1 mph8.2 kmh 30.03 in1016.9 mb 0.00 in0.0 mm 0.00 in0.0 mm 0.00 in0.0 mm
07:00 AM 59.7°F15.4°C 50.3°F10.2°C 71% 2.0 mph S3.2 kmh S 9.1 mph14.6 kmh 30.05 in1017.6 mb 0.00 in0.0 mm 0.00 in0.0 mm 0.00 in0.0 mm
08:00 AM 65.7°F18.7°C 51.5°F10.8°C 60% 4.0 mph SW6.4 kmh SW 5.1 mph8.2 kmh 30.08 in1018.6 mb 0.00 in0.0 mm 0.00 in0.0 mm 0.00 in0.0 mm
09:00 AM 69.0°F20.6°C 53.2°F11.8°C 57% 3.0 mph NNW4.8 kmh NNW 7.1 mph11.4 kmh 30.10 in1019.3 mb 0.00 in0.0 mm 0.00 in0.0 mm 0.00 in0.0 mm
10:00 AM 71.2°F21.8°C 55.2°F12.9°C 57% 4.0 mph S6.4 kmh S 7.1 mph11.4 kmh 30.12 in1020.0 mb 0.00 in0.0 mm 0.00 in0.0 mm 0.00 in0.0 mm
11:00 AM 72.7°F22.6°C 55.1°F12.8°C 54% 3.0 mph N4.8 kmh N 10.1 mph16.3 kmh 30.11 in1019.6 mb 0.00 in0.0 mm 0.00 in0.0 mm 0.00 in0.0 mm
12:00 PM 74.0°F23.3°C 53.6°F12.0°C 49% 5.0 mph SW8.0 kmh SW 6.1 mph9.8 kmh 30.12 in1020.0 mb 0.00 in0.0 mm 0.00 in0.0 mm 0.00 in0.0 mm
01:00 PM 74.9°F23.8°C 53.3°F11.8°C 47% 5.0 mph WSW8.0 kmh WSW 5.1 mph8.2 kmh 30.12 in1020.0 mb 0.00 in0.0 mm 0.00 in0.0 mm 0.00 in0.0 mm
02:00 PM 75.9°F24.4°C 56.5°F13.6°C 51% 3.0 mph SW4.8 kmh SW 4.0 mph6.4 kmh 30.11 in1019.6 mb 0.00 in0.0 mm 0.00 in0.0 mm 0.00 in0.0 mm
03:00 PM 77.1°F25.1°C 51.6°F10.9°C 41% 6.0 mph W9.7 kmh W 6.1 mph9.8 kmh 30.11 in1019.6 mb 0.00 in0.0 mm 0.00 in0.0 mm 0.00 in0.0 mm
04:00 PM 77.5°F25.3°C 52.6°F11.4°C 42% 3.0 mph S4.8 kmh S 4.0 mph6.4 kmh 30.10 in1019.3 mb 0.00 in0.0 mm 0.00 in0.0 mm 0.00 in0.0 mm
05:00 PM 76.9°F24.9°C 55.7°F13.2°C 48% Calm Calm 3.0 mph4.8 kmh 30.09 in1019.0 mb 0.00 in0.0 mm 0.00 in0.0 mm 0.00 in0.0 mm
06:00 PM 72.7°F22.6°C 53.5°F11.9°C 51% 4.0 mph SW6.4 kmh SW 4.0 mph6.4 kmh 30.10 in1019.3 mb 0.00 in0.0 mm 0.00 in0.0 mm 0.00 in0.0 mm
07:00 PM 70.2°F21.2°C 54.2°F12.3°C 57% 3.0 mph SW4.8 kmh SW 4.0 mph6.4 kmh 30.11 in1019.6 mb 0.00 in0.0 mm 0.00 in0.0 mm 0.00 in0.0 mm
08:00 PM 65.8°F18.8°C 54.6°F12.6°C 67% 1.0 mph S1.6 kmh S 2.0 mph3.2 kmh 30.12 in1020.0 mb 0.00 in0.0 mm 0.00 in0.0 mm 0.00 in0.0 mm
09:00 PM 65.1°F18.4°C 54.3°F12.4°C 68% 3.0 mph SSW4.8 kmh SSW 5.1 mph8.2 kmh 30.14 in1020.7 mb 0.00 in0.0 mm 0.00 in0.0 mm 0.00 in0.0 mm
10:00 PM 64.1°F17.8°C 54.2°F12.3°C 70% 1.0 mph S1.6 kmh S 2.0 mph3.2 kmh 30.16 in1021.3 mb 0.00 in0.0 mm 0.00 in0.0 mm 0.00 in0.0 mm
11:00 PM 61.7°F16.5°C 54.1°F12.3°C 76% 3.0 mph SSW4.8 kmh SSW 4.0 mph6.4 kmh 30.17 in1021.7 mb 0.00 in0.0 mm 0.00 in0.0 mm 0.00 in0.0 mm